sensor_id;sensor_type;location;lat;lon;timestamp;pressure;altitude;pressure_sealevel;temperature;humidity
50434;BME280;36361;38.954;-9.002;2023-10-08T00:00:50;101132.41;;;21.46;100.00
50434;BME280;36361;38.954;-9.002;2023-10-08T00:01:54;101133.81;;;21.49;100.00
50434;BME280;36361;38.954;-9.002;2023-10-08T00:02:57;101129.34;;;21.48;100.00
50434;BME280;36361;38.954;-9.002;2023-10-08T00:03:58;101126.03;;;21.56;100.00
50434;BME280;36361;38.954;-9.002;2023-10-08T00:05:01;101125.50;;;21.44;100.00
50434;BME280;36361;38.954;-9.002;2023-10-08T00:06:04;101133.22;;;21.37;100.00
50434;BME280;36361;38.954;-9.002;2023-10-08T00:07:13;101133.81;;;21.59;100.00
50434;BME280;36361;38.954;-9.002;2023-10-08T00:08:13;101133.22;;;21.57;100.00
50434;BME280;36361;38.954;-9.002;2023-10-08T00:09:17;101136.56;;;21.69;100.00
50434;BME280;36361;38.954;-9.002;2023-10-08T00:10:21;101133.78;;;21.64;100.00
50434;BME280;36361;38.954;-9.002;2023-10-08T00:11:26;101128.53;;;21.47;100.00
50434;BME280;36361;38.954;-9.002;2023-10-08T00:12:29;101130.47;;;21.37;100.00
50434;BME280;36361;38.954;-9.002;2023-10-08T00:13:30;101129.66;;;21.31;100.00
50434;BME280;36361;38.954;-9.002;2023-10-08T00:14:31;101125.47;;;21.23;100.00
50434;BME280;36361;38.954;-9.002;2023-10-08T00:15:44;101123.28;;;21.41;100.00
50434;BME280;36361;38.954;-9.002;2023-10-08T00:16:54;101122.16;;;21.37;100.00
50434;BME280;36361;38.954;-9.002;2023-10-08T00:17:55;101117.44;;;21.37;100.00
50434;BME280;36361;38.954;-9.002;2023-10-08T00:18:59;101126.03;;;21.46;100.00
50434;BME280;36361;38.954;-9.002;2023-10-08T00:20:08;101129.34;;;21.48;100.00
50434;BME280;36361;38.954;-9.002;2023-10-08T00:21:20;101126.03;;;21.61;100.00
50434;BME280;36361;38.954;-9.002;2023-10-08T00:22:27;101122.75;;;21.49;100.00
50434;BME280;36361;38.954;-9.002;2023-10-08T00:23:31;101121.88;;;21.53;100.00
50434;BME280;36361;38.954;-9.002;2023-10-08T00:24:35;101129.38;;;21.53;100.00
50434;BME280;36361;38.954;-9.002;2023-10-08T00:25:38;101122.16;;;21.52;100.00
50434;BME280;36361;38.954;-9.002;2023-10-08T00:26:41;101128.25;;;21.69;100.00
50434;BME280;36361;38.954;-9.002;2023-10-08T00:27:41;101122.16;;;21.67;100.00
50434;BME280;36361;38.954;-9.002;2023-10-08T00:28:42;101126.03;;;21.71;100.00
50434;BME280;36361;38.954;-9.002;2023-10-08T00:29:43;101132.69;;;21.70;100.00
50434;BME280;36361;38.954;-9.002;2023-10-08T00:30:44;101129.38;;;21.68;100.00
50434;BME280;36361;38.954;-9.002;2023-10-08T00:31:45;101123.00;;;21.68;100.00
50434;BME280;36361;38.954;-9.002;2023-10-08T00:32:46;101128.25;;;21.64;100.00
50434;BME280;36361;38.954;-9.002;2023-10-08T00:33:46;101126.03;;;21.46;100.00
50434;BME280;36361;38.954;-9.002;2023-10-08T00:34:48;101119.13;;;21.28;100.00
50434;BME280;36361;38.954;-9.002;2023-10-08T00:35:49;101115.53;;;21.33;100.00
50434;BME280;36361;38.954;-9.002;2023-10-08T00:36:50;101121.63;;;21.40;100.00
50434;BME280;36361;38.954;-9.002;2023-10-08T00:37:51;101125.50;;;21.34;100.00
50434;BME280;36361;38.954;-9.002;2023-10-08T00:38:54;101121.63;;;21.50;100.00
50434;BME280;36361;38.954;-9.002;2023-10-08T00:39:59;101123.28;;;21.61;100.00
50434;BME280;36361;38.954;-9.002;2023-10-08T00:41:03;101124.38;;;21.55;100.00
50434;BME280;36361;38.954;-9.002;2023-10-08T00:42:07;101122.72;;;21.44;100.00
50434;BME280;36361;38.954;-9.002;2023-10-08T00:43:10;101121.59;;;21.29;100.00
50434;BME280;36361;38.954;-9.002;2023-10-08T00:44:12;101118.28;;;21.27;100.00
50434;BME280;36361;38.954;-9.002;2023-10-08T00:45:22;101114.38;;;21.18;100.00
50434;BME280;36361;38.954;-9.002;2023-10-08T00:46:25;101113.28;;;21.14;100.00
50434;BME280;36361;38.954;-9.002;2023-10-08T00:47:32;101113.81;;;21.11;100.00
50434;BME280;36361;38.954;-9.002;2023-10-08T00:48:40;101123.28;;;21.41;100.00
50434;BME280;36361;38.954;-9.002;2023-10-08T00:49:44;101122.16;;;21.37;100.00
50434;BME280;36361;38.954;-9.002;2023-10-08T00:50:49;101112.22;;;21.31;100.00
50434;BME280;36361;38.954;-9.002;2023-10-08T00:51:55;101118.25;;;21.07;100.00
50434;BME280;36361;38.954;-9.002;2023-10-08T00:53:12;101113.81;;;20.96;100.00
50434;BME280;36361;38.954;-9.002;2023-10-08T00:54:24;101117.13;;;21.08;100.00
50434;BME280;36361;38.954;-9.002;2023-10-08T00:55:25;101114.38;;;21.18;100.00
50434;BME280;36361;38.954;-9.002;2023-10-08T00:56:30;101119.63;;;21.25;100.00
50434;BME280;36361;38.954;-9.002;2023-10-08T00:57:47;101113.84;;;21.21;100.00
50434;BME280;36361;38.954;-9.002;2023-10-08T00:58:49;101119.63;;;21.25;100.00
50434;BME280;36361;38.954;-9.002;2023-10-08T00:59:54;101124.63;;;21.23;100.00
50434;BME280;36361;38.954;-9.002;2023-10-08T01:00:56;101114.41;;;21.28;100.00
50434;BME280;36361;38.954;-9.002;2023-10-08T01:02:00;101122.16;;;21.21;100.00
50434;BME280;36361;38.954;-9.002;2023-10-08T01:03:07;101115.47;;;21.07;100.00
50434;BME280;36361;38.954;-9.002;2023-10-08T01:04:20;101124.84;;;21.01;100.00
50434;BME280;36361;38.954;-9.002;2023-10-08T01:05:27;101116.00;;;20.89;100.00
50434;BME280;36361;38.954;-9.002;2023-10-08T01:06:43;101114.34;;;20.88;100.00
50434;BME280;36361;38.954;-9.002;2023-10-08T01:07:46;101116.59;;;21.16;100.00
50434;BME280;36361;38.954;-9.002;2023-10-08T01:08:49;101119.06;;;21.18;100.00
50434;BME280;36361;38.954;-9.002;2023-10-08T01:09:54;101117.41;;;21.17;100.00
50434;BME280;36361;38.954;-9.002;2023-10-08T01:11:16;101116.28;;;21.02;100.00
50434;BME280;36361;38.954;-9.002;2023-10-08T01:12:22;101123.78;;;21.07;100.00
50434;BME280;36361;38.954;-9.002;2023-10-08T01:13:34;101123.22;;;21.10;100.00
50434;BME280;36361;38.954;-9.002;2023-10-08T01:14:39;101120.97;;;20.92;100.00
50434;BME280;36361;38.954;-9.002;2023-10-08T01:15:43;101114.03;;;20.84;100.00
50434;BME280;36361;38.954;-9.002;2023-10-08T01:16:45;101113.75;;;20.81;100.00
50434;BME280;36361;38.954;-9.002;2023-10-08T01:17:47;101112.66;;;20.92;100.00
50434;BME280;36361;38.954;-9.002;2023-10-08T01:19:06;101115.44;;;21.02;100.00
50434;BME280;36361;38.954;-9.002;2023-10-08T01:20:15;101112.97;;;21.11;100.00
50434;BME280;36361;38.954;-9.002;2023-10-08T01:21:34;101117.41;;;21.17;100.00
50434;BME280;36361;38.954;-9.002;2023-10-08T01:22:34;101117.69;;;21.20;100.00
50434;BME280;36361;38.954;-9.002;2023-10-08T01:23:36;101111.59;;;21.18;100.00
50434;BME280;36361;38.954;-9.002;2023-10-08T01:24:38;101104.41;;;21.12;100.00
50434;BME280;36361;38.954;-9.002;2023-10-08T01:25:40;101109.38;;;21.05;100.00
50434;BME280;36361;38.954;-9.002;2023-10-08T01:26:43;101104.38;;;21.02;100.00
50434;BME280;36361;38.954;-9.002;2023-10-08T01:27:45;101108.25;;;20.91;100.00
50434;BME280;36361;38.954;-9.002;2023-10-08T01:28:46;101107.94;;;20.77;100.00
50434;BME280;36361;38.954;-9.002;2023-10-08T01:29:48;101112.94;;;20.80;100.00
50434;BME280;36361;38.954;-9.002;2023-10-08T01:30:51;101112.09;;;20.80;100.00
50434;BME280;36361;38.954;-9.002;2023-10-08T01:31:54;101110.97;;;20.76;100.00
50434;BME280;36361;38.954;-9.002;2023-10-08T01:32:55;101111.53;;;20.72;100.00
50434;BME280;36361;38.954;-9.002;2023-10-08T01:33:56;101116.47;;;20.65;100.00
50434;BME280;36361;38.954;-9.002;2023-10-08T01:35:00;101120.91;;;20.71;100.00
50434;BME280;36361;38.954;-9.002;2023-10-08T01:36:06;101120.66;;;20.68;100.00
50434;BME280;36361;38.954;-9.002;2023-10-08T01:37:14;101112.06;;;20.69;100.00
50434;BME280;36361;38.954;-9.002;2023-10-08T01:38:17;101107.66;;;20.73;100.00
50434;BME280;36361;38.954;-9.002;2023-10-08T01:39:23;101118.09;;;20.56;100.00
50434;BME280;36361;38.954;-9.002;2023-10-08T01:40:27;101115.38;;;20.61;100.00
50434;BME280;36361;38.954;-9.002;2023-10-08T01:41:30;101113.19;;;20.68;100.00
50434;BME280;36361;38.954;-9.002;2023-10-08T01:42:31;101114.84;;;20.74;100.00
50434;BME280;36361;38.954;-9.002;2023-10-08T01:43:39;101109.03;;;20.71;100.00
50434;BME280;36361;38.954;-9.002;2023-10-08T01:44:39;101115.97;;;20.79;100.00
50434;BME280;36361;38.954;-9.002;2023-10-08T01:45:40;101111.00;;;20.81;100.00
50434;BME280;36361;38.954;-9.002;2023-10-08T01:46:41;101111.03;;;20.96;100.00
50434;BME280;36361;38.954;-9.002;2023-10-08T01:47:46;101106.28;;;20.81;100.00
50434;BME280;36361;38.954;-9.002;2023-10-08T01:48:54;101111.03;;;20.86;100.00
50434;BME280;36361;38.954;-9.002;2023-10-08T01:50:07;101101.63;;;20.97;100.00
50434;BME280;36361;38.954;-9.002;2023-10-08T01:51:21;101102.75;;;21.06;100.00
50434;BME280;36361;38.954;-9.002;2023-10-08T01:52:25;101102.72;;;21.01;100.00
50434;BME280;36361;38.954;-9.002;2023-10-08T01:53:25;101102.13;;;20.84;100.00
50434;BME280;36361;38.954;-9.002;2023-10-08T01:54:27;101106.78;;;20.63;100.00
50434;BME280;36361;38.954;-9.002;2023-10-08T01:55:27;101101.53;;;20.61;100.00
50434;BME280;36361;38.954;-9.002;2023-10-08T01:56:33;101101.53;;;20.66;100.00
50434;BME280;36361;38.954;-9.002;2023-10-08T01:57:35;101094.09;;;20.67;100.00
50434;BME280;36361;38.954;-9.002;2023-10-08T01:58:36;101094.91;;;20.62;100.00
50434;BME280;36361;38.954;-9.002;2023-10-08T01:59:38;101104.56;;;20.65;100.00
50434;BME280;36361;38.954;-9.002;2023-10-08T02:00:42;101096.06;;;20.87;100.00
50434;BME280;36361;38.954;-9.002;2023-10-08T02:01:47;101097.75;;;20.98;100.00
50434;BME280;36361;38.954;-9.002;2023-10-08T02:02:51;101095.78;;;20.78;100.00
50434;BME280;36361;38.954;-9.002;2023-10-08T02:03:51;101101.25;;;20.63;100.00
50434;BME280;36361;38.954;-9.002;2023-10-08T02:04:52;101099.34;;;20.68;100.00
50434;BME280;36361;38.954;-9.002;2023-10-08T02:05:54;101099.88;;;20.60;100.00
50434;BME280;36361;38.954;-9.002;2023-10-08T02:06:59;101099.31;;;20.58;100.00
50434;BME280;36361;38.954;-9.002;2023-10-08T02:08:00;101091.84;;;20.64;100.00
50434;BME280;36361;38.954;-9.002;2023-10-08T02:09:03;101103.22;;;20.67;100.00
50434;BME280;36361;38.954;-9.002;2023-10-08T02:10:08;101101.56;;;20.71;100.00
50434;BME280;36361;38.954;-9.002;2023-10-08T02:11:11;101101.63;;;20.97;100.00
50434;BME280;36361;38.954;-9.002;2023-10-08T02:12:11;101090.53;;;20.82;100.00
50434;BME280;36361;38.954;-9.002;2023-10-08T02:13:14;101098.00;;;20.86;100.00
50434;BME280;36361;38.954;-9.002;2023-10-08T02:14:17;101096.34;;;20.90;100.00
50434;BME280;36361;38.954;-9.002;2023-10-08T02:15:17;101091.06;;;20.84;100.00
50434;BME280;36361;38.954;-9.002;2023-10-08T02:16:18;101099.38;;;20.79;100.00
50434;BME280;36361;38.954;-9.002;2023-10-08T02:17:19;101091.59;;;20.70;100.00
50434;BME280;36361;38.954;-9.002;2023-10-08T02:18:20;101098.78;;;20.71;100.00
50434;BME280;36361;38.954;-9.002;2023-10-08T02:19:23;101093.28;;;20.82;100.00
50434;BME280;36361;38.954;-9.002;2023-10-08T02:20:27;101091.59;;;20.70;100.00
50434;BME280;36361;38.954;-9.002;2023-10-08T02:21:28;101090.53;;;20.77;100.00
50434;BME280;36361;38.954;-9.002;2023-10-08T02:22:28;101091.06;;;20.79;100.00
50434;BME280;36361;38.954;-9.002;2023-10-08T02:23:29;101091.88;;;20.74;100.00
50434;BME280;36361;38.954;-9.002;2023-10-08T02:24:30;101089.41;;;20.72;100.00
50434;BME280;36361;38.954;-9.002;2023-10-08T02:25:31;101086.38;;;20.84;100.00
50434;BME280;36361;38.954;-9.002;2023-10-08T02:26:32;101088.56;;;20.72;100.00
50434;BME280;36361;38.954;-9.002;2023-10-08T02:27:34;101086.06;;;20.70;100.00
50434;BME280;36361;38.954;-9.002;2023-10-08T02:28:39;101084.13;;;20.66;100.00
50434;BME280;36361;38.954;-9.002;2023-10-08T02:29:40;101087.22;;;20.85;100.00
50434;BME280;36361;38.954;-9.002;2023-10-08T02:30:42;101084.19;;;20.96;100.00
50434;BME280;36361;38.954;-9.002;2023-10-08T02:31:43;101082.78;;;20.84;100.00
50434;BME280;36361;38.954;-9.002;2023-10-08T02:32:44;101087.75;;;20.82;100.00
50434;BME280;36361;38.954;-9.002;2023-10-08T02:33:46;101084.16;;;20.81;100.00
50434;BME280;36361;38.954;-9.002;2023-10-08T02:34:48;101089.72;;;20.91;100.00
50434;BME280;36361;38.954;-9.002;2023-10-08T02:35:50;101087.78;;;20.87;100.00
50434;BME280;36361;38.954;-9.002;2023-10-08T02:36:54;101083.59;;;20.79;100.00
50434;BME280;36361;38.954;-9.002;2023-10-08T02:37:57;101093.53;;;20.70;100.00
50434;BME280;36361;38.954;-9.002;2023-10-08T02:38:57;101088.00;;;20.75;100.00
50434;BME280;36361;38.954;-9.002;2023-10-08T02:39:58;101089.97;;;20.80;100.00
50434;BME280;36361;38.954;-9.002;2023-10-08T02:40:59;101094.13;;;20.87;100.00
50434;BME280;36361;38.954;-9.002;2023-10-08T02:41:59;101079.19;;;20.83;100.00
50434;BME280;36361;38.954;-9.002;2023-10-08T02:43:01;101087.72;;;20.61;100.00
50434;BME280;36361;38.954;-9.002;2023-10-08T02:44:02;101096.31;;;20.70;100.00
50434;BME280;36361;38.954;-9.002;2023-10-08T02:45:06;101095.47;;;20.69;100.00
50434;BME280;36361;38.954;-9.002;2023-10-08T02:46:07;101097.13;;;20.60;100.00
50434;BME280;36361;38.954;-9.002;2023-10-08T02:47:09;101086.63;;;20.67;100.00
50434;BME280;36361;38.954;-9.002;2023-10-08T02:48:12;101088.84;;;20.70;100.00
50434;BME280;36361;38.954;-9.002;2023-10-08T02:49:17;101091.88;;;20.74;100.00
50434;BME280;36361;38.954;-9.002;2023-10-08T02:50:22;101092.72;;;20.74;100.00
50434;BME280;36361;38.954;-9.002;2023-10-08T02:51:23;101085.25;;;20.75;100.00
50434;BME280;36361;38.954;-9.002;2023-10-08T02:52:25;101090.22;;;20.73;100.00
50434;BME280;36361;38.954;-9.002;2023-10-08T02:53:26;101085.50;;;20.63;100.00
50434;BME280;36361;38.954;-9.002;2023-10-08T02:54:29;101088.28;;;20.58;100.00
50434;BME280;36361;38.954;-9.002;2023-10-08T02:55:40;101091.03;;;20.63;100.00
50434;BME280;36361;38.954;-9.002;2023-10-08T02:56:50;101082.75;;;20.58;100.00
50434;BME280;36361;38.954;-9.002;2023-10-08T02:57:58;101085.97;;;20.40;100.00
50434;BME280;36361;38.954;-9.002;2023-10-08T02:58:59;101079.94;;;20.53;100.00
50434;BME280;36361;38.954;-9.002;2023-10-08T03:00:02;101083.59;;;20.69;100.00
50434;BME280;36361;38.954;-9.002;2023-10-08T03:01:04;101077.22;;;20.68;100.00
50434;BME280;36361;38.954;-9.002;2023-10-08T03:02:09;101075.00;;;20.60;100.00
50434;BME280;36361;38.954;-9.002;2023-10-08T03:03:19;101084.41;;;20.59;100.00
50434;BME280;36361;38.954;-9.002;2023-10-08T03:04:20;101082.34;;;20.34;100.00
50434;BME280;36361;38.954;-9.002;2023-10-08T03:05:23;101080.19;;;20.47;100.00
50434;BME280;36361;38.954;-9.002;2023-10-08T03:06:30;101080.50;;;20.50;100.00
50434;BME280;36361;38.954;-9.002;2023-10-08T03:07:33;101073.84;;;20.56;100.00
50434;BME280;36361;38.954;-9.002;2023-10-08T03:08:36;101078.25;;;20.47;100.00
50434;BME280;36361;38.954;-9.002;2023-10-08T03:09:37;101071.56;;;20.38;100.00
50434;BME280;36361;38.954;-9.002;2023-10-08T03:10:42;101074.91;;;20.40;100.00
50434;BME280;36361;38.954;-9.002;2023-10-08T03:11:44;101079.28;;;20.36;100.00
50434;BME280;36361;38.954;-9.002;2023-10-08T03:12:48;101076.47;;;20.21;100.00
50434;BME280;36361;38.954;-9.002;2023-10-08T03:13:51;101082.28;;;20.24;100.00
50434;BME280;36361;38.954;-9.002;2023-10-08T03:14:53;101083.13;;;20.25;100.00
50434;BME280;36361;38.954;-9.002;2023-10-08T03:16:13;101067.69;;;20.34;100.00
50434;BME280;36361;38.954;-9.002;2023-10-08T03:17:14;101077.16;;;20.43;100.00
50434;BME280;36361;38.954;-9.002;2023-10-08T03:18:30;101080.13;;;20.36;100.00
50434;BME280;36361;38.954;-9.002;2023-10-08T03:19:36;101074.31;;;20.38;100.00
50434;BME280;36361;38.954;-9.002;2023-10-08T03:20:38;101084.91;;;20.51;100.00
50434;BME280;36361;38.954;-9.002;2023-10-08T03:21:42;101084.91;;;20.56;100.00
50434;BME280;36361;38.954;-9.002;2023-10-08T03:22:49;101082.69;;;20.48;100.00
50434;BME280;36361;38.954;-9.002;2023-10-08T03:23:50;101081.50;;;20.39;100.00
50434;BME280;36361;38.954;-9.002;2023-10-08T03:24:54;101083.22;;;20.45;100.00
50434;BME280;36361;38.954;-9.002;2023-10-08T03:26:03;101087.09;;;20.44;100.00
50434;BME280;36361;38.954;-9.002;2023-10-08T03:27:12;101080.94;;;20.37;100.00
50434;BME280;36361;38.954;-9.002;2023-10-08T03:28:20;101074.28;;;20.23;100.00
50434;BME280;36361;38.954;-9.002;2023-10-08T03:29:26;101075.34;;;20.16;100.00
50434;BME280;36361;38.954;-9.002;2023-10-08T03:30:31;101083.16;;;20.35;100.00
50434;BME280;36361;38.954;-9.002;2023-10-08T03:31:37;101088.13;;;20.33;100.00
50434;BME280;36361;38.954;-9.002;2023-10-08T03:32:54;101077.28;;;20.16;100.00
50434;BME280;36361;38.954;-9.002;2023-10-08T03:34:00;101087.03;;;20.34;100.00
50434;BME280;36361;38.954;-9.002;2023-10-08T03:35:01;101084.75;;;20.21;100.00
50434;BME280;36361;38.954;-9.002;2023-10-08T03:36:04;101085.84;;;20.20;100.00
50434;BME280;36361;38.954;-9.002;2023-10-08T03:37:22;101088.94;;;20.28;100.00
50434;BME280;36361;38.954;-9.002;2023-10-08T03:38:29;101086.16;;;20.23;100.00
50434;BME280;36361;38.954;-9.002;2023-10-08T03:39:45;101085.06;;;20.29;100.00
50434;BME280;36361;38.954;-9.002;2023-10-08T03:40:52;101096.03;;;20.09;100.00
50434;BME280;36361;38.954;-9.002;2023-10-08T03:41:57;101090.75;;;20.02;100.00
50434;BME280;36361;38.954;-9.002;2023-10-08T03:43:08;101094.09;;;20.04;100.00
50434;BME280;36361;38.954;-9.002;2023-10-08T03:44:20;101090.75;;;20.02;100.00
50434;BME280;36361;38.954;-9.002;2023-10-08T03:45:21;101092.97;;;20.05;100.00
50434;BME280;36361;38.954;-9.002;2023-10-08T03:46:40;101092.16;;;20.10;100.00
50434;BME280;36361;38.954;-9.002;2023-10-08T03:47:44;101087.47;;;20.05;100.00
50434;BME280;36361;38.954;-9.002;2023-10-08T03:48:47;101097.88;;;19.93;100.00
50434;BME280;36361;38.954;-9.002;2023-10-08T03:49:57;101093.44;;;19.92;100.00
50434;BME280;36361;38.954;-9.002;2023-10-08T03:51:06;101090.78;;;20.07;100.00
50434;BME280;36361;38.954;-9.002;2023-10-08T03:52:07;101098.25;;;20.07;100.00
50434;BME280;36361;38.954;-9.002;2023-10-08T03:53:08;101089.63;;;19.98;100.00
50434;BME280;36361;38.954;-9.002;2023-10-08T03:54:12;101096.59;;;20.06;100.00
50434;BME280;36361;38.954;-9.002;2023-10-08T03:55:15;101090.81;;;20.12;100.00
50434;BME280;36361;38.954;-9.002;2023-10-08T03:56:18;101095.50;;;20.12;100.00
50434;BME280;36361;38.954;-9.002;2023-10-08T03:57:20;101099.94;;;20.18;100.00
50434;BME280;36361;38.954;-9.002;2023-10-08T03:58:25;101090.28;;;20.21;100.00
50434;BME280;36361;38.954;-9.002;2023-10-08T03:59:30;101091.38;;;20.20;100.00
50434;BME280;36361;38.954;-9.002;2023-10-08T04:00:34;101094.16;;;20.20;100.00
50434;BME280;36361;38.954;-9.002;2023-10-08T04:01:42;101102.97;;;20.16;100.00
50434;BME280;36361;38.954;-9.002;2023-10-08T04:02:43;101097.13;;;20.08;100.00
50434;BME280;36361;38.954;-9.002;2023-10-08T04:03:54;101095.25;;;20.18;100.00
50434;BME280;36361;38.954;-9.002;2023-10-08T04:04:58;101101.38;;;20.26;100.00
50434;BME280;36361;38.954;-9.002;2023-10-08T04:06:00;101102.16;;;20.16;100.00
50434;BME280;36361;38.954;-9.002;2023-10-08T04:07:18;101096.72;;;20.31;100.00
50434;BME280;36361;38.954;-9.002;2023-10-08T04:08:45;101098.09;;;20.34;100.00
50434;BME280;36361;38.954;-9.002;2023-10-08T04:10:00;101108.22;;;20.18;100.00
50434;BME280;36361;38.954;-9.002;2023-10-08T04:11:27;101103.03;;;20.27;100.00
50434;BME280;36361;38.954;-9.002;2023-10-08T04:12:44;101106.31;;;20.18;100.00
50434;BME280;36361;38.954;-9.002;2023-10-08T04:13:49;101109.56;;;20.05;100.00
50434;BME280;36361;38.954;-9.002;2023-10-08T04:14:55;101111.44;;;20.00;100.00
50434;BME280;36361;38.954;-9.002;2023-10-08T04:15:56;101107.25;;;19.92;100.00
50434;BME280;36361;38.954;-9.002;2023-10-08T04:16:57;101107.88;;;19.99;100.00
50434;BME280;36361;38.954;-9.002;2023-10-08T04:17:59;101104.78;;;19.91;100.00
50434;BME280;36361;38.954;-9.002;2023-10-08T04:19:04;101109.22;;;19.97;100.00
50434;BME280;36361;38.954;-9.002;2023-10-08T04:20:07;101107.69;;;20.16;100.00
50434;BME280;36361;38.954;-9.002;2023-10-08T04:21:30;101109.56;;;20.10;100.00
50434;BME280;36361;38.954;-9.002;2023-10-08T04:22:34;101100.50;;;20.15;100.00
50434;BME280;36361;38.954;-9.002;2023-10-08T04:23:35;101104.38;;;20.14;100.00
50434;BME280;36361;38.954;-9.002;2023-10-08T04:24:38;101107.31;;;20.02;100.00
50434;BME280;36361;38.954;-9.002;2023-10-08T04:25:44;101105.84;;;19.84;100.00
50434;BME280;36361;38.954;-9.002;2023-10-08T04:26:45;101105.09;;;19.94;100.00
50434;BME280;36361;38.954;-9.002;2023-10-08T04:27:46;101103.88;;;19.80;100.00
50434;BME280;36361;38.954;-9.002;2023-10-08T04:28:53;101112.84;;;20.02;100.00
50434;BME280;36361;38.954;-9.002;2023-10-08T04:30:03;101108.75;;;20.10;100.00
50434;BME280;36361;38.954;-9.002;2023-10-08T04:31:04;101107.69;;;20.16;100.00
50434;BME280;36361;38.954;-9.002;2023-10-08T04:32:17;101109.88;;;20.14;100.00
50434;BME280;36361;38.954;-9.002;2023-10-08T04:33:25;101099.66;;;20.20;100.00
50434;BME280;36361;38.954;-9.002;2023-10-08T04:34:26;101105.19;;;20.14;100.00
50434;BME280;36361;38.954;-9.002;2023-10-08T04:35:28;101115.09;;;20.10;100.00
50434;BME280;36361;38.954;-9.002;2023-10-08T04:36:29;101110.94;;;20.08;100.00
50434;BME280;36361;38.954;-9.002;2023-10-08T04:37:29;101115.09;;;20.10;100.00
50434;BME280;36361;38.954;-9.002;2023-10-08T04:38:33;101111.53;;;20.15;100.00
50434;BME280;36361;38.954;-9.002;2023-10-08T04:39:40;101105.28;;;20.35;100.00
50434;BME280;36361;38.954;-9.002;2023-10-08T04:40:49;101098.91;;;20.34;100.00
50434;BME280;36361;38.954;-9.002;2023-10-08T04:41:52;101106.34;;;20.24;100.00
50434;BME280;36361;38.954;-9.002;2023-10-08T04:42:58;101102.47;;;20.30;100.00
50434;BME280;36361;38.954;-9.002;2023-10-08T04:44:02;101111.63;;;20.35;100.00
50434;BME280;36361;38.954;-9.002;2023-10-08T04:45:12;101100.53;;;20.25;100.00
50434;BME280;36361;38.954;-9.002;2023-10-08T04:46:16;101119.66;;;20.32;100.00
50434;BME280;36361;38.954;-9.002;2023-10-08T04:47:22;101108.59;;;20.37;100.00
50434;BME280;36361;38.954;-9.002;2023-10-08T04:48:32;101111.66;;;20.40;100.00
50434;BME280;36361;38.954;-9.002;2023-10-08T04:49:33;101110.03;;;20.44;100.00
50434;BME280;36361;38.954;-9.002;2023-10-08T04:50:35;101115.69;;;20.17;100.00
50434;BME280;36361;38.954;-9.002;2023-10-08T04:51:37;101110.34;;;20.01;100.00
50434;BME280;36361;38.954;-9.002;2023-10-08T04:52:44;101114.59;;;20.13;100.00
50434;BME280;36361;38.954;-9.002;2023-10-08T04:53:58;101111.09;;;20.33;100.00
50434;BME280;36361;38.954;-9.002;2023-10-08T04:55:04;101101.97;;;20.33;100.00
50434;BME280;36361;38.954;-9.002;2023-10-08T04:56:15;101105.56;;;20.38;100.00
50434;BME280;36361;38.954;-9.002;2023-10-08T04:57:19;101112.47;;;20.36;100.00
50434;BME280;36361;38.954;-9.002;2023-10-08T04:58:22;101103.41;;;20.45;100.00
50434;BME280;36361;38.954;-9.002;2023-10-08T04:59:34;101104.22;;;20.41;100.00
50434;BME280;36361;38.954;-9.002;2023-10-08T05:00:34;101105.88;;;20.42;100.00
50434;BME280;36361;38.954;-9.002;2023-10-08T05:01:55;101105.28;;;20.35;100.00
50434;BME280;36361;38.954;-9.002;2023-10-08T05:03:22;101112.00;;;20.49;100.00
50434;BME280;36361;38.954;-9.002;2023-10-08T05:04:28;101110.00;;;20.39;100.00
50434;BME280;36361;38.954;-9.002;2023-10-08T05:05:46;101120.09;;;20.13;100.00
50434;BME280;36361;38.954;-9.002;2023-10-08T05:07:08;101112.78;;;19.87;100.00
50434;BME280;36361;38.954;-9.002;2023-10-08T05:08:22;101117.19;;;19.88;100.00
50434;BME280;36361;38.954;-9.002;2023-10-08T05:09:33;101116.38;;;19.87;100.00
50434;BME280;36361;38.954;-9.002;2023-10-08T05:10:47;101120.78;;;19.88;100.00
50434;BME280;36361;38.954;-9.002;2023-10-08T05:12:01;101114.50;;;19.98;100.00
50434;BME280;36361;38.954;-9.002;2023-10-08T05:13:20;101114.44;;;19.93;100.00
50434;BME280;36361;38.954;-9.002;2023-10-08T05:14:31;101112.78;;;19.87;100.00
50434;BME280;36361;38.954;-9.002;2023-10-08T05:15:39;101114.91;;;20.22;100.00
50434;BME280;36361;38.954;-9.002;2023-10-08T05:17:03;101118.44;;;20.12;100.00
50434;BME280;36361;38.954;-9.002;2023-10-08T05:18:09;101118.50;;;20.23;100.00
50434;BME280;36361;38.954;-9.002;2023-10-08T05:19:13;101119.56;;;20.16;100.00
50434;BME280;36361;38.954;-9.002;2023-10-08T05:20:46;101120.06;;;20.03;100.00
50434;BME280;36361;38.954;-9.002;2023-10-08T05:21:49;101123.38;;;20.05;100.00
50434;BME280;36361;38.954;-9.002;2023-10-08T05:23:09;101121.47;;;20.11;100.00
50434;BME280;36361;38.954;-9.002;2023-10-08T05:24:25;101117.84;;;20.05;100.00
50434;BME280;36361;38.954;-9.002;2023-10-08T05:25:42;101124.59;;;20.30;100.00
50434;BME280;36361;38.954;-9.002;2023-10-08T05:26:58;101122.28;;;20.11;100.00
50434;BME280;36361;38.954;-9.002;2023-10-08T05:28:27;101131.41;;;20.07;100.00
50434;BME280;36361;38.954;-9.002;2023-10-08T05:29:37;101127.94;;;19.84;100.00
50434;BME280;36361;38.954;-9.002;2023-10-08T05:30:52;101134.13;;;20.02;100.00
50434;BME280;36361;38.954;-9.002;2023-10-08T05:32:22;101137.16;;;20.00;100.00
50434;BME280;36361;38.954;-9.002;2023-10-08T05:33:42;101134.22;;;20.17;100.00
50434;BME280;36361;38.954;-9.002;2023-10-08T05:35:01;101134.38;;;20.00;100.00
50434;BME280;36361;38.954;-9.002;2023-10-08T05:36:24;101139.63;;;19.97;100.00